KMAF/MAF METAR and TAF weather

Enter ICAO airport designator
Station Type Date Time Source
KMAF METAR 2019/06/17 04:53 UTC NOAA

KMAF 170453Z AUTO 09013KT 10SM CLR 26/19 A2995 RMK AO2 SLP090 T02560189


Station Type Date Time Source
KMAF Decoded METAR 2019/06/17 04:53 UTC NOAA

MIDLAND INTERNATIONAL AIRPORT , TX, United States (KMAF) 31-56N 102-12W 872M
Jun 17, 2019 - 12:53 AM EDT / 2019.06.17 0453 UTC
Wind: from the E (090 degrees) at 15 MPH (13 KT):0
Visibility: 10 mile(s):0
Sky conditions: clear
Temperature: 78.1 F (25.6 C)
Dew Point: 66.0 F (18.9 C)
Relative Humidity: 66%
Pressure (altimeter): 29.95 in. Hg (1014 hPa)
ob: KMAF 170453Z AUTO 09013KT 10SM CLR 26/19 A2995 RMK AO2 SLP090 T02560189
cycle: 5

Station Type Date Time Source
KMAF TAF 2019/06/17 06:22 UTC NOAA

TAF KMAF 170520Z 1706/1806 10010KT P6SM SCT200
FM171600 14014G20KT P6SM SCT045
FM180100 16010KT P6SM SCT250

Example: see airport list